createdAt,value
2019-05-07T00:02:02.501Z,6.40
2019-05-07T00:04:33.029Z,6.30
2019-05-07T00:07:02.388Z,6.30
2019-05-07T00:09:32.315Z,6.30
2019-05-07T00:12:04.677Z,6.30
2019-05-07T00:14:31.983Z,6.30
2019-05-07T00:17:02.251Z,6.30
2019-05-07T00:19:32.527Z,6.30
2019-05-07T00:22:02.406Z,6.20
2019-05-07T00:24:33.158Z,6.20
2019-05-07T00:27:02.817Z,6.20
2019-05-07T00:29:32.214Z,6.10
2019-05-07T00:32:02.915Z,6.20
2019-05-07T00:34:33.008Z,6.20
2019-05-07T00:37:07.055Z,6.10
2019-05-07T00:39:52.939Z,6.10
2019-05-07T00:42:26.014Z,6.10
2019-05-07T00:45:13.243Z,6.00
2019-05-07T00:47:29.375Z,6.00
2019-05-07T00:49:59.615Z,6.00
2019-05-07T00:52:28.333Z,6.10
2019-05-07T00:54:57.001Z,6.10
2019-05-07T00:57:25.752Z,6.00
2019-05-07T00:59:54.444Z,6.10
2019-05-07T01:02:23.706Z,6.10
2019-05-07T01:04:53.166Z,6.10
2019-05-07T01:07:22.957Z,6.10
2019-05-07T01:09:52.510Z,6.10
2019-05-07T01:12:22.194Z,6.00
2019-05-07T01:14:52.787Z,6.00
2019-05-07T01:17:22.664Z,6.00
2019-05-07T01:19:53.313Z,6.00
2019-05-07T01:22:22.347Z,6.00
2019-05-07T01:24:52.572Z,6.10
2019-05-07T01:27:22.646Z,6.10
2019-05-07T01:29:52.842Z,6.10
2019-05-07T01:32:32.955Z,6.10
2019-05-07T01:35:03.391Z,6.10
2019-05-07T01:37:32.560Z,6.00
2019-05-07T01:40:03.078Z,6.00
2019-05-07T01:42:32.738Z,6.00
2019-05-07T01:45:02.486Z,6.00
2019-05-07T01:47:33.118Z,6.00
2019-05-07T01:50:03.026Z,6.10
2019-05-07T01:52:33.154Z,6.20
2019-05-07T01:55:03.262Z,6.10
2019-05-07T01:57:32.752Z,6.10
2019-05-07T02:00:02.541Z,6.20
2019-05-07T02:02:33.142Z,6.20
2019-05-07T02:05:09.162Z,6.10
2019-05-07T02:07:42.914Z,6.10
2019-05-07T02:10:18.989Z,6.10
2019-05-07T02:12:47.691Z,6.10
2019-05-07T02:15:16.364Z,6.00
2019-05-07T02:17:45.081Z,5.90
2019-05-07T02:20:13.781Z,5.80
2019-05-07T02:22:42.849Z,5.80
2019-05-07T02:25:12.641Z,5.80
2019-05-07T02:27:42.048Z,5.80
2019-05-07T02:30:14.433Z,5.80
2019-05-07T02:32:43.212Z,5.80
2019-05-07T02:35:13.534Z,5.80
2019-05-07T02:37:52.047Z,5.90
2019-05-07T02:40:27.024Z,5.90
2019-05-07T02:42:55.774Z,5.90
2019-05-07T02:45:37.822Z,5.90
2019-05-07T02:48:06.642Z,6.00
2019-05-07T02:50:48.720Z,6.00
2019-05-07T02:53:19.033Z,6.00
2019-05-07T02:55:49.283Z,6.00
2019-05-07T02:58:18.030Z,6.00
2019-05-07T03:00:46.739Z,6.00
2019-05-07T03:03:15.493Z,6.00
2019-05-07T03:05:44.173Z,6.00
2019-05-07T03:08:13.603Z,6.00
2019-05-07T03:10:43.400Z,5.90
2019-05-07T03:13:13.761Z,6.00
2019-05-07T03:15:43.455Z,6.00
2019-05-07T03:18:13.783Z,6.00
2019-05-07T03:20:44.467Z,5.90
2019-05-07T03:23:14.745Z,5.90
2019-05-07T03:25:53.865Z,6.00
2019-05-07T03:28:23.294Z,6.00
2019-05-07T03:31:16.627Z,5.90
2019-05-07T03:33:47.717Z,6.00
2019-05-07T03:36:17.651Z,6.00
2019-05-07T03:38:46.586Z,6.00
2019-05-07T03:41:15.264Z,6.00
2019-05-07T03:43:44.584Z,6.00
2019-05-07T03:46:14.868Z,6.10
2019-05-07T03:48:44.891Z,6.10
2019-05-07T03:51:13.577Z,6.10
2019-05-07T03:53:43.679Z,6.20
2019-05-07T03:56:13.275Z,6.20
2019-05-07T03:58:43.360Z,6.30
2019-05-07T04:01:16.687Z,6.40
2019-05-07T04:03:45.435Z,6.50
2019-05-07T04:06:14.112Z,6.60
2019-05-07T04:08:43.501Z,6.60
2019-05-07T04:11:13.885Z,6.60
2019-05-07T04:13:44.134Z,6.60
2019-05-07T04:16:13.817Z,6.60
2019-05-07T04:18:43.789Z,6.60
2019-05-07T04:21:13.970Z,6.60
2019-05-07T04:23:43.834Z,6.60
2019-05-07T04:26:17.568Z,6.70
2019-05-07T04:28:59.477Z,6.70
2019-05-07T04:31:29.731Z,6.70
2019-05-07T04:34:00.084Z,6.70
2019-05-07T04:36:30.164Z,6.70
2019-05-07T04:38:58.877Z,6.70
2019-05-07T04:41:27.587Z,6.70
2019-05-07T04:43:56.282Z,6.70
2019-05-07T04:46:24.966Z,6.70
2019-05-07T04:48:53.685Z,6.70
2019-05-07T04:51:23.940Z,6.70
2019-05-07T04:53:54.100Z,6.70
2019-05-07T04:56:23.891Z,6.80
2019-05-07T04:58:53.264Z,6.80
2019-05-07T05:01:23.816Z,7.00
2019-05-07T05:03:54.096Z,7.00
2019-05-07T05:06:24.256Z,7.00
2019-05-07T05:08:55.995Z,7.10
2019-05-07T05:11:23.833Z,7.10
2019-05-07T05:13:53.337Z,7.20
2019-05-07T05:16:26.533Z,7.30
2019-05-07T05:18:55.463Z,7.40
2019-05-07T05:21:42.154Z,7.50
2019-05-07T05:24:12.688Z,7.50
2019-05-07T05:26:41.963Z,7.60
2019-05-07T05:29:12.158Z,7.60
2019-05-07T05:31:42.166Z,7.60
2019-05-07T05:34:13.018Z,7.70
2019-05-07T05:36:42.508Z,7.90
2019-05-07T05:39:13.122Z,8.00
2019-05-07T05:41:43.733Z,8.10
2019-05-07T05:44:26.312Z,8.10
2019-05-07T05:46:54.992Z,8.30
2019-05-07T05:49:23.658Z,8.20
2019-05-07T05:51:53.961Z,8.20
2019-05-07T05:54:24.230Z,8.10
2019-05-07T05:56:54.555Z,8.10
2019-05-07T05:59:49.088Z,8.20
2019-05-07T06:02:22.756Z,8.10
2019-05-07T06:05:09.714Z,8.10
2019-05-07T06:07:42.930Z,8.10
2019-05-07T06:10:29.432Z,8.20
2019-05-07T06:13:08.240Z,8.10
2019-05-07T06:15:56.306Z,8.10
2019-05-07T06:18:38.246Z,8.10
2019-05-07T06:21:24.133Z,8.10
2019-05-07T06:23:54.643Z,8.20
2019-05-07T06:26:23.832Z,8.10
2019-05-07T06:28:52.530Z,8.10
2019-05-07T06:31:22.152Z,8.20
2019-05-07T06:33:52.312Z,8.20
2019-05-07T06:36:22.034Z,8.20
2019-05-07T06:38:53.088Z,8.30
2019-05-07T06:41:29.522Z,8.30
2019-05-07T06:44:01.931Z,8.50
2019-05-07T06:46:32.180Z,8.50
2019-05-07T06:49:02.153Z,8.50
2019-05-07T06:51:32.842Z,8.60
2019-05-07T06:54:02.761Z,8.70
2019-05-07T06:56:32.537Z,8.70
2019-05-07T06:59:06.064Z,8.70
2019-05-07T07:01:53.084Z,8.70
2019-05-07T07:04:29.259Z,8.70
2019-05-07T07:07:01.798Z,8.70
2019-05-07T07:09:37.279Z,8.80
2019-05-07T07:12:12.759Z,8.80
2019-05-07T07:14:42.331Z,8.90
2019-05-07T07:17:12.920Z,9.00
2019-05-07T07:19:42.829Z,9.00
2019-05-07T07:22:12.996Z,9.10
2019-05-07T07:24:42.434Z,9.20
2019-05-07T07:27:13.221Z,9.30
2019-05-07T07:29:49.367Z,9.30
2019-05-07T07:32:19.627Z,9.30
2019-05-07T07:34:53.243Z,9.20
2019-05-07T07:37:26.524Z,9.20
2019-05-07T07:40:13.087Z,9.40
2019-05-07T07:42:42.634Z,9.50
2019-05-07T07:45:15.790Z,9.60
2019-05-07T07:47:45.505Z,9.60
2019-05-07T07:50:14.416Z,9.70
2019-05-07T07:52:43.091Z,9.70
2019-05-07T07:55:12.749Z,9.70
2019-05-07T07:57:43.047Z,9.70
2019-05-07T08:00:16.127Z,9.80
2019-05-07T08:02:46.387Z,9.80
2019-05-07T08:05:15.107Z,9.90
2019-05-07T08:07:43.782Z,10.00
2019-05-07T08:10:12.947Z,10.10
2019-05-07T08:12:42.249Z,10.10
2019-05-07T08:15:18.075Z,10.10
2019-05-07T08:17:41.880Z,10.10
2019-05-07T08:20:12.821Z,10.10
2019-05-07T08:22:42.346Z,10.20
2019-05-07T08:25:12.482Z,10.20
2019-05-07T08:27:41.997Z,10.40
2019-05-07T08:30:12.504Z,10.30
2019-05-07T08:32:52.943Z,10.40
2019-05-07T08:35:23.443Z,10.40
2019-05-07T08:37:52.122Z,10.50
2019-05-07T08:40:22.044Z,10.50
2019-05-07T08:42:52.372Z,10.60
2019-05-07T08:45:24.955Z,10.60
2019-05-07T08:47:54.762Z,10.60
2019-05-07T08:50:23.493Z,10.70
2019-05-07T08:52:52.264Z,10.80
2019-05-07T08:55:21.783Z,10.80
2019-05-07T08:57:52.110Z,11.10
2019-05-07T09:00:22.555Z,11.20
2019-05-07T09:02:52.455Z,11.20
2019-05-07T09:05:22.070Z,11.40
2019-05-07T09:07:51.730Z,11.40
2019-05-07T09:10:21.827Z,11.40
2019-05-07T09:12:52.473Z,11.40
2019-05-07T09:15:22.624Z,11.60
2019-05-07T09:17:52.659Z,11.60
2019-05-07T09:20:22.819Z,11.60
2019-05-07T09:22:51.885Z,11.80
2019-05-07T09:25:22.327Z,11.90
2019-05-07T09:27:53.014Z,11.80
2019-05-07T09:30:28.453Z,11.90
2019-05-07T09:32:57.955Z,11.90
2019-05-07T09:35:32.083Z,11.80
2019-05-07T09:38:03.002Z,11.90
2019-05-07T09:40:32.060Z,11.90
2019-05-07T09:43:02.562Z,12.00
2019-05-07T09:45:32.906Z,12.10
2019-05-07T09:48:02.866Z,12.20
2019-05-07T09:50:32.570Z,12.40
2019-05-07T09:53:02.345Z,12.40
2019-05-07T09:55:32.568Z,12.50
2019-05-07T09:58:02.004Z,12.50
2019-05-07T10:00:31.992Z,12.40
2019-05-07T10:03:00.970Z,12.50
2019-05-07T10:05:31.941Z,12.50
2019-05-07T10:08:01.752Z,12.60
2019-05-07T10:10:30.353Z,12.60
2019-05-07T10:13:03.232Z,12.60
2019-05-07T10:15:33.115Z,12.60
2019-05-07T10:18:12.792Z,12.70
2019-05-07T10:20:42.092Z,12.80
2019-05-07T10:23:12.588Z,12.90
2019-05-07T10:25:41.268Z,12.90
2019-05-07T10:28:09.985Z,12.70
2019-05-07T10:30:38.659Z,12.60
2019-05-07T10:33:07.370Z,12.50
2019-05-07T10:35:36.045Z,12.40
2019-05-07T10:38:04.772Z,12.40
2019-05-07T10:40:33.462Z,12.40
2019-05-07T10:43:02.174Z,12.50
2019-05-07T10:45:35.365Z,12.50
2019-05-07T10:48:08.688Z,12.50
2019-05-07T10:50:47.890Z,12.60
2019-05-07T10:53:16.601Z,12.50
2019-05-07T10:55:45.666Z,12.40
2019-05-07T10:58:14.604Z,12.40
2019-05-07T11:00:43.287Z,12.30
2019-05-07T11:03:12.638Z,12.10
2019-05-07T11:05:41.986Z,11.90
2019-05-07T11:08:10.830Z,11.80
2019-05-07T11:10:41.730Z,11.70
2019-05-07T11:13:09.877Z,11.80
2019-05-07T11:15:38.964Z,11.90
2019-05-07T11:18:09.251Z,12.10
2019-05-07T11:20:47.354Z,12.20
2019-05-07T11:23:08.296Z,12.10
2019-05-07T11:25:36.982Z,12.10
2019-05-07T11:28:05.722Z,12.20
2019-05-07T11:30:34.462Z,12.30
2019-05-07T11:33:03.180Z,12.40
2019-05-07T11:35:32.081Z,12.50
2019-05-07T11:38:10.949Z,12.50
2019-05-07T11:40:32.038Z,12.60
2019-05-07T11:43:09.106Z,12.60
2019-05-07T11:45:45.327Z,12.70
2019-05-07T11:48:14.638Z,12.70
2019-05-07T11:51:04.118Z,12.80
2019-05-07T11:53:33.080Z,12.80
2019-05-07T11:56:02.496Z,13.10
2019-05-07T11:58:32.526Z,13.40
2019-05-07T12:01:05.881Z,13.50
2019-05-07T12:03:34.641Z,13.70
2019-05-07T12:06:03.315Z,13.70
2019-05-07T12:08:42.808Z,13.70
2019-05-07T12:11:02.552Z,13.60
2019-05-07T12:13:32.264Z,13.70
2019-05-07T12:16:02.911Z,13.50
2019-05-07T12:18:32.081Z,13.50
2019-05-07T12:21:03.814Z,13.80
2019-05-07T12:23:33.259Z,14.00
2019-05-07T12:26:02.315Z,14.10
2019-05-07T12:28:32.874Z,14.30
2019-05-07T12:31:09.367Z,14.00
2019-05-07T12:33:45.170Z,14.00
2019-05-07T12:36:15.664Z,13.90
2019-05-07T12:38:44.390Z,13.80
2019-05-07T12:41:33.668Z,13.80
2019-05-07T12:44:03.897Z,13.90
2019-05-07T12:46:33.357Z,13.80
2019-05-07T12:49:03.108Z,13.80
2019-05-07T12:51:37.478Z,13.60
2019-05-07T12:54:08.621Z,13.90
2019-05-07T12:56:37.295Z,14.20
2019-05-07T12:59:06.041Z,14.60
2019-05-07T13:01:42.315Z,15.20
2019-05-07T13:04:12.615Z,15.80
2019-05-07T13:06:48.707Z,15.70
2019-05-07T13:09:17.416Z,15.20
2019-05-07T13:11:46.098Z,14.60
2019-05-07T13:14:14.815Z,14.10
2019-05-07T13:16:43.492Z,13.80
2019-05-07T13:19:13.218Z,13.80
2019-05-07T13:21:47.419Z,13.90
2019-05-07T13:24:14.938Z,13.90
2019-05-07T13:26:42.840Z,14.40
2019-05-07T13:29:12.784Z,14.70
2019-05-07T13:31:41.969Z,14.90
2019-05-07T13:34:12.250Z,14.90
2019-05-07T13:36:42.711Z,14.90
2019-05-07T13:39:12.983Z,15.10
2019-05-07T13:41:43.312Z,15.10
2019-05-07T13:44:31.847Z,14.90
2019-05-07T13:47:18.495Z,14.80
2019-05-07T13:49:47.932Z,14.50
2019-05-07T13:52:16.733Z,14.30
2019-05-07T13:54:45.474Z,14.20
2019-05-07T13:57:14.218Z,13.90
2019-05-07T13:59:42.891Z,13.80
2019-05-07T14:02:15.381Z,13.60
2019-05-07T14:04:43.540Z,13.50
2019-05-07T14:07:12.638Z,13.50
2019-05-07T14:09:42.058Z,13.40
2019-05-07T14:12:12.346Z,13.60
2019-05-07T14:14:42.607Z,13.70
2019-05-07T14:17:12.705Z,13.80
2019-05-07T14:19:42.306Z,14.00
2019-05-07T14:22:18.065Z,14.00
2019-05-07T14:24:42.212Z,13.80
2019-05-07T14:27:11.127Z,13.70
2019-05-07T14:29:39.815Z,13.50
2019-05-07T14:32:13.135Z,13.40
2019-05-07T14:35:01.967Z,13.50
2019-05-07T14:37:37.244Z,13.40
2019-05-07T14:40:06.805Z,13.40
2019-05-07T14:42:38.466Z,13.30
2019-05-07T14:45:07.347Z,13.50
2019-05-07T14:47:36.089Z,13.50
2019-05-07T14:50:06.312Z,13.50
2019-05-07T14:52:36.261Z,14.30
2019-05-07T14:55:05.731Z,14.90
2019-05-07T14:57:35.388Z,14.80
2019-05-07T15:00:06.192Z,14.40
2019-05-07T15:02:34.923Z,13.70
2019-05-07T15:05:05.567Z,13.10
2019-05-07T15:07:34.296Z,13.00
2019-05-07T15:10:04.696Z,13.00
2019-05-07T15:12:33.452Z,12.90
2019-05-07T15:15:02.311Z,13.00
2019-05-07T15:17:35.126Z,12.90
2019-05-07T15:20:04.055Z,12.90
2019-05-07T15:22:52.664Z,12.80
2019-05-07T15:25:22.687Z,13.10
2019-05-07T15:27:52.678Z,13.40
2019-05-07T15:30:22.139Z,14.00
2019-05-07T15:32:52.112Z,15.40
2019-05-07T15:35:20.974Z,15.80
2019-05-07T15:37:51.676Z,15.90
2019-05-07T15:40:22.373Z,15.80
2019-05-07T15:42:52.386Z,16.00
2019-05-07T15:45:21.697Z,16.70
2019-05-07T15:47:52.215Z,16.80
2019-05-07T15:50:23.030Z,16.50
2019-05-07T15:53:09.764Z,16.20
2019-05-07T15:55:38.421Z,15.90
2019-05-07T15:58:07.154Z,15.70
2019-05-07T16:00:37.163Z,15.10
2019-05-07T16:03:12.044Z,14.70
2019-05-07T16:05:42.503Z,14.70
2019-05-07T16:08:12.860Z,14.80
2019-05-07T16:10:42.702Z,14.80
2019-05-07T16:13:13.745Z,14.70
2019-05-07T16:15:42.556Z,14.50
2019-05-07T16:18:13.102Z,14.50
2019-05-07T16:20:42.852Z,14.50
2019-05-07T16:23:15.644Z,14.40
2019-05-07T16:25:42.301Z,14.20
2019-05-07T16:28:12.809Z,14.20
2019-05-07T16:30:42.660Z,14.40
2019-05-07T16:33:12.782Z,14.20
2019-05-07T16:35:42.541Z,14.10
2019-05-07T16:38:14.517Z,13.90
2019-05-07T16:40:42.860Z,13.90
2019-05-07T16:43:12.129Z,13.80
2019-05-07T16:45:42.487Z,13.80
2019-05-07T16:48:11.935Z,13.60
2019-05-07T16:50:40.894Z,13.50
2019-05-07T16:53:09.612Z,13.50
2019-05-07T16:55:38.321Z,13.50
2019-05-07T16:58:08.649Z,13.40
2019-05-07T17:00:52.789Z,13.30
2019-05-07T17:03:22.875Z,13.30
2019-05-07T17:05:52.398Z,13.20
2019-05-07T17:08:22.881Z,12.90
2019-05-07T17:10:52.372Z,12.80
2019-05-07T17:13:21.302Z,12.70
2019-05-07T17:15:57.530Z,12.60
2019-05-07T17:18:26.695Z,12.50
2019-05-07T17:20:56.149Z,12.40
2019-05-07T17:23:24.926Z,12.30
2019-05-07T17:25:53.625Z,12.40
2019-05-07T17:28:22.969Z,12.40
2019-05-07T17:30:52.452Z,12.40
2019-05-07T17:33:23.060Z,12.20
2019-05-07T17:35:51.891Z,12.30
2019-05-07T17:38:22.872Z,12.20
2019-05-07T17:40:52.151Z,12.30
2019-05-07T17:43:21.951Z,12.30
2019-05-07T17:45:52.368Z,12.30
2019-05-07T17:48:23.262Z,12.30
2019-05-07T17:51:08.440Z,12.20
2019-05-07T17:53:37.549Z,12.30
2019-05-07T17:56:06.351Z,12.30
2019-05-07T17:58:35.104Z,12.30
2019-05-07T18:01:04.733Z,12.20
2019-05-07T18:03:37.810Z,12.10
2019-05-07T18:06:06.609Z,12.10
2019-05-07T18:08:35.371Z,12.10
2019-05-07T18:11:17.285Z,12.00
2019-05-07T18:13:34.441Z,11.80
2019-05-07T18:16:12.149Z,11.70
2019-05-07T18:18:43.042Z,11.70
2019-05-07T18:21:12.594Z,11.60
2019-05-07T18:23:41.547Z,11.60
2019-05-07T18:26:13.557Z,11.60
2019-05-07T18:28:41.691Z,11.60
2019-05-07T18:31:12.613Z,11.50
2019-05-07T18:33:44.164Z,11.50
2019-05-07T18:36:12.844Z,11.50
2019-05-07T18:38:42.362Z,11.50
2019-05-07T18:41:12.147Z,11.60
2019-05-07T18:43:42.188Z,11.50
2019-05-07T18:46:12.889Z,11.60
2019-05-07T18:48:42.599Z,11.50
2019-05-07T18:51:12.157Z,11.60
2019-05-07T18:53:42.483Z,11.60
2019-05-07T18:56:12.619Z,11.60
2019-05-07T18:58:42.582Z,11.70
2019-05-07T19:01:13.123Z,11.70
2019-05-07T19:03:42.087Z,11.70
2019-05-07T19:06:13.160Z,11.50
2019-05-07T19:08:42.242Z,11.50
2019-05-07T19:11:12.271Z,11.50
2019-05-07T19:13:41.975Z,11.50
2019-05-07T19:16:12.386Z,11.50
2019-05-07T19:18:43.142Z,11.60
2019-05-07T19:21:11.698Z,11.50
2019-05-07T19:23:42.344Z,11.50
2019-05-07T19:26:13.043Z,11.50
2019-05-07T19:28:42.232Z,11.50
2019-05-07T19:31:12.512Z,11.50
2019-05-07T19:33:42.017Z,11.50
2019-05-07T19:36:10.902Z,11.50
2019-05-07T19:38:41.912Z,11.50
2019-05-07T19:41:12.117Z,11.50
2019-05-07T19:43:42.001Z,11.50
2019-05-07T19:46:12.344Z,11.50
2019-05-07T19:48:41.128Z,11.50
2019-05-07T19:51:12.030Z,11.50
2019-05-07T19:53:41.989Z,11.40
2019-05-07T19:56:15.089Z,11.30
2019-05-07T19:58:43.816Z,11.30
2019-05-07T20:01:14.081Z,11.20
2019-05-07T20:03:43.460Z,11.20
2019-05-07T20:06:13.990Z,11.20
2019-05-07T20:08:43.725Z,11.20
2019-05-07T20:11:22.287Z,11.10
2019-05-07T20:13:52.409Z,11.30
2019-05-07T20:16:23.183Z,11.30
2019-05-07T20:18:52.534Z,11.20
2019-05-07T20:21:22.948Z,11.10
2019-05-07T20:23:52.740Z,11.10
2019-05-07T20:26:23.163Z,11.10
2019-05-07T20:28:52.674Z,11.10
2019-05-07T20:31:22.697Z,11.00
2019-05-07T20:33:53.036Z,10.90
2019-05-07T20:36:21.976Z,11.00
2019-05-07T20:38:52.103Z,10.90
2019-05-07T20:41:23.063Z,11.00
2019-05-07T20:43:52.363Z,11.00
2019-05-07T20:46:21.323Z,11.10
2019-05-07T20:48:50.025Z,11.10
2019-05-07T20:51:18.787Z,11.00
2019-05-07T20:53:52.341Z,10.90
2019-05-07T20:56:22.719Z,11.00
2019-05-07T20:58:52.068Z,10.90
2019-05-07T21:01:22.013Z,10.90
2019-05-07T21:03:52.752Z,10.90
2019-05-07T21:06:22.484Z,10.90
2019-05-07T21:08:51.397Z,10.70
2019-05-07T21:11:22.467Z,10.60
2019-05-07T21:13:52.288Z,10.60
2019-05-07T21:16:22.102Z,10.60
2019-05-07T21:18:52.833Z,10.60
2019-05-07T21:21:21.890Z,10.50
2019-05-07T21:23:52.702Z,10.50
2019-05-07T21:26:22.536Z,10.50
2019-05-07T21:28:52.775Z,10.50
2019-05-07T21:31:22.760Z,10.40
2019-05-07T21:33:52.392Z,10.40
2019-05-07T21:36:22.892Z,10.30
2019-05-07T21:38:52.034Z,10.30
2019-05-07T21:41:22.685Z,10.20
2019-05-07T21:43:52.842Z,10.20
2019-05-07T21:46:22.309Z,10.10
2019-05-07T21:48:51.799Z,10.00
2019-05-07T21:51:22.889Z,9.90
2019-05-07T21:53:59.140Z,9.80
2019-05-07T21:56:45.320Z,9.90
2019-05-07T21:59:15.591Z,9.90
2019-05-07T22:01:45.921Z,9.90
2019-05-07T22:04:14.605Z,9.70
2019-05-07T22:06:45.536Z,9.70
2019-05-07T22:09:14.384Z,9.70
2019-05-07T22:11:43.099Z,9.60
2019-05-07T22:14:12.918Z,9.60
2019-05-07T22:16:41.947Z,9.60
2019-05-07T22:19:12.141Z,9.60
2019-05-07T22:21:43.278Z,9.60
2019-05-07T22:24:13.064Z,9.60
2019-05-07T22:26:42.149Z,9.80
2019-05-07T22:29:12.505Z,9.90
2019-05-07T22:31:44.275Z,10.00
2019-05-07T22:34:14.718Z,10.00
2019-05-07T22:36:43.441Z,9.90
2019-05-07T22:39:13.775Z,9.90
2019-05-07T22:41:42.590Z,9.80
2019-05-07T22:44:12.006Z,9.80
2019-05-07T22:46:42.178Z,9.70
2019-05-07T22:49:12.242Z,9.60
2019-05-07T22:51:41.131Z,9.50
2019-05-07T22:54:11.736Z,9.40
2019-05-07T22:56:58.033Z,9.40
2019-05-07T22:59:26.701Z,9.30
2019-05-07T23:01:55.423Z,9.20
2019-05-07T23:04:24.138Z,9.10
2019-05-07T23:06:52.999Z,9.10
2019-05-07T23:09:22.373Z,9.00
2019-05-07T23:11:52.579Z,9.00
2019-05-07T23:14:22.618Z,8.90
2019-05-07T23:16:53.954Z,8.80
2019-05-07T23:19:22.280Z,8.70
2019-05-07T23:21:52.095Z,8.60
2019-05-07T23:24:22.726Z,8.50
2019-05-07T23:26:53.680Z,8.50
2019-05-07T23:29:22.685Z,8.50
2019-05-07T23:31:52.891Z,8.50
2019-05-07T23:34:22.199Z,8.60
2019-05-07T23:36:53.316Z,8.50
2019-05-07T23:39:23.180Z,8.40
2019-05-07T23:41:59.325Z,8.40
2019-05-07T23:44:28.020Z,8.40
2019-05-07T23:46:56.749Z,8.40
2019-05-07T23:49:25.437Z,8.40
2019-05-07T23:51:54.128Z,8.30
2019-05-07T23:54:23.285Z,8.30
2019-05-07T23:57:04.922Z,8.30
2019-05-07T23:59:22.480Z,8.30
